Time;durP1;ratioP1;P1;durP2;ratioP2;P2;SDS_P1;SDS_P2;PMS_P1;PMS_P2;Temp;Humidity;BMP_temperature;BMP_pressure;BME280_temperature;BME280_humidity;BME280_pressure;Samples;Min_cycle;Max_cycle;Signal;HPM_P1;HPM_P2
2021/12/13 00:00:59;;;;;;;2.92;2.17;;;;;;;15.52;40.43;94002.59;5004436;28;20038;-86
2021/12/13 00:03:42;;;;;;;2.83;2.17;;;;;;;15.51;40.38;93999.09;4987407;28;20054;-83
2021/12/13 00:06:09;;;;;;;2.55;2.05;;;;;;;15.48;40.30;93993.88;4972650;28;20058;-83
2021/12/13 00:08:36;;;;;;;2.17;1.80;;;;;;;15.47;40.36;93995.84;4968176;28;20041;-82
2021/12/13 00:11:11;;;;;;;3.00;1.95;;;;;;;15.47;40.62;93992.38;4969765;28;20082;-82
2021/12/13 00:13:41;;;;;;;3.00;2.05;;;;;;;15.52;40.48;93989.72;4996297;28;20061;-83
2021/12/13 00:16:06;;;;;;;2.35;2.03;;;;;;;15.52;40.43;93988.97;4990617;28;20432;-83
2021/12/13 00:18:34;;;;;;;2.67;1.95;;;;;;;15.57;40.16;93985.59;5007494;28;20512;-83
2021/12/13 00:21:07;;;;;;;1.85;1.70;;;;;;;15.53;40.50;93990.47;4999257;28;20100;-82
2021/12/13 00:23:48;;;;;;;2.53;1.83;;;;;;;15.53;40.59;93987.72;4972143;28;20126;-82
2021/12/13 00:26:25;;;;;;;2.45;2.10;;;;;;;15.51;40.27;93985.47;4987240;28;20117;-83
2021/12/13 00:28:50;;;;;;;2.22;2.00;;;;;;;15.54;40.26;93983.78;4987974;28;20042;-82
2021/12/13 00:31:34;;;;;;;2.13;1.75;;;;;;;15.50;40.29;93975.06;4970615;28;20046;-83
2021/12/13 00:34:18;;;;;;;3.08;2.28;;;;;;;15.51;40.37;93982.00;4988361;28;20504;-82
2021/12/13 00:36:49;;;;;;;2.15;1.95;;;;;;;15.49;40.57;93981.75;4989411;28;20039;-83
2021/12/13 00:39:23;;;;;;;2.50;1.95;;;;;;;15.49;40.36;93990.66;4987194;28;20042;-84
2021/12/13 00:41:48;;;;;;;1.73;1.63;;;;;;;15.49;40.41;93987.94;5002241;28;20034;-88
2021/12/13 00:44:29;;;;;;;1.90;1.70;;;;;;;15.47;40.39;93979.50;5021532;28;20519;-83
2021/12/13 00:46:55;;;;;;;;;;;;;;;15.51;40.40;93985.47;4971857;28;20102;-83
2021/12/13 00:49:23;;;;;;;2.90;2.10;;;;;;;15.53;40.20;93985.00;5020331;28;20048;-83
2021/12/13 00:51:50;;;;;;;2.15;1.60;;;;;;;15.49;40.55;93985.22;4987416;28;20397;-86
2021/12/13 00:54:21;;;;;;;2.08;1.80;;;;;;;15.51;40.46;93990.19;5002871;28;20042;-83
2021/12/13 00:57:04;;;;;;;2.08;1.60;;;;;;;15.45;40.50;93971.03;4987344;28;20038;-83
2021/12/13 00:59:39;;;;;;;1.90;1.67;;;;;;;15.47;40.56;93986.91;4986934;28;20106;-83
2021/12/13 01:02:14;;;;;;;2.13;1.70;;;;;;;15.49;40.21;93987.94;4988298;28;20509;-83
2021/12/13 01:05:14;;;;;;;1.98;1.60;;;;;;;15.47;40.36;93986.91;4971366;28;20125;-83
2021/12/13 01:07:52;;;;;;;1.70;1.60;;;;;;;15.49;40.47;93985.22;4989103;28;20564;-83
2021/12/13 01:10:40;;;;;;;2.35;1.70;;;;;;;15.46;40.49;93991.63;4986988;28;20046;-83
2021/12/13 01:13:32;;;;;;;1.75;1.58;;;;;;;15.47;40.43;93995.09;4988594;28;20058;-83
2021/12/13 01:16:08;;;;;;;3.88;1.60;;;;;;;15.46;40.36;93983.44;5008087;28;20420;-83
2021/12/13 01:18:57;;;;;;;2.03;1.75;;;;;;;15.49;40.62;93992.63;5006357;28;20038;-87
2021/12/13 01:21:37;;;;;;;1.95;1.63;;;;;;;15.52;40.32;93992.44;4997830;28;20058;-83
2021/12/13 01:24:10;;;;;;;3.65;1.70;;;;;;;15.49;40.35;93982.50;4971344;28;20061;-83
2021/12/13 01:26:40;;;;;;;1.63;1.40;;;;;;;15.47;40.54;93984.19;4971831;28;20066;-87
2021/12/13 01:29:10;;;;;;;1.85;1.48;;;;;;;15.52;40.33;93983.50;4986866;28;20117;-83
2021/12/13 01:31:39;;;;;;;1.95;1.65;;;;;;;15.55;40.18;93988.75;4974688;28;20396;-83
2021/12/13 01:34:05;;;;;;;1.83;1.40;;;;;;;15.50;40.28;93988.69;4989959;28;20042;-83
2021/12/13 01:36:37;;;;;;;2.22;1.52;;;;;;;15.50;40.56;93985.97;4974914;28;20430;-84
2021/12/13 01:39:08;;;;;;;1.83;1.55;;;;;;;15.54;40.60;93979.09;4975008;28;20034;-82
2021/12/13 01:41:38;;;;;;;1.63;1.50;;;;;;;15.51;40.55;93985.47;4971555;28;20046;-83
2021/12/13 01:44:14;;;;;;;2.47;1.73;;;;;;;15.49;40.49;93979.00;5009701;28;20038;-82
2021/12/13 01:46:42;;;;;;;1.65;1.30;;;;;;;15.47;40.25;93970.56;4993198;28;20038;-83
2021/12/13 01:49:07;;;;;;;2.63;1.77;;;;;;;15.55;40.34;93968.94;4990555;28;20532;-83
2021/12/13 01:51:33;;;;;;;1.77;1.40;;;;;;;15.47;40.35;93962.38;4990681;28;20042;-83
2021/12/13 01:54:15;;;;;;;1.90;1.35;;;;;;;15.50;40.27;93967.63;4974335;28;20038;-83
2021/12/13 01:56:59;;;;;;;3.13;1.60;;;;;;;15.50;40.75;93975.06;4958217;28;20130;-83
2021/12/13 01:59:42;;;;;;;1.50;1.30;;;;;;;15.53;40.35;93979.56;4960697;28;20049;-85
2021/12/13 02:02:16;;;;;;;2.20;1.65;;;;;;;15.50;40.60;93972.34;4983171;28;20496;-83
2021/12/13 02:04:42;;;;;;;1.67;1.30;;;;;;;15.50;40.57;93984.00;5010501;28;20084;-88
2021/12/13 02:07:08;;;;;;;2.13;1.45;;;;;;;15.48;40.59;93974.78;5005094;28;20389;-83
2021/12/13 02:09:37;;;;;;;1.88;1.50;;;;;;;15.54;40.31;93973.63;4972257;28;20054;-83
2021/12/13 02:12:15;;;;;;;1.85;1.33;;;;;;;15.52;40.65;93975.34;4972573;28;20080;-83
2021/12/13 02:16:55;;;;;;;1.63;1.33;;;;;;;15.45;40.31;93973.75;4989213;28;20086;-83
2021/12/13 02:17:35;;;;;;;1.55;1.20;;;;;;;15.46;40.62;93964.38;4993407;28;20530;-83
2021/12/13 02:20:11;;;;;;;1.98;1.27;;;;;;;15.54;40.33;93970.16;4958248;28;20130;-87
2021/12/13 02:22:44;;;;;;;1.33;1.15;;;;;;;15.50;40.27;93970.38;4973623;28;20045;-90
2021/12/13 02:25:12;;;;;;;1.55;1.20;;;;;;;15.50;40.35;93967.63;4973015;28;20042;-83
2021/12/13 02:27:40;;;;;;;1.92;1.30;;;;;;;15.46;40.44;93972.53;4990796;28;20050;-83
2021/12/13 02:30:17;;;;;;;1.08;0.98;;;;;;;15.48;40.57;93974.78;4973492;28;20049;-83
2021/12/13 02:32:43;;;;;;;1.33;1.23;;;;;;;15.49;40.40;93962.66;4958546;28;20056;-87
2021/12/13 02:35:09;;;;;;;1.23;1.13;;;;;;;15.47;40.51;93965.13;4972658;28;20041;-83
2021/12/13 02:37:34;;;;;;;1.48;1.33;;;;;;;15.50;40.47;93970.38;4973658;28;20050;-83
2021/12/13 02:39:59;;;;;;;1.20;1.00;;;;;;;15.54;40.33;93962.00;4957690;28;20525;-88
2021/12/13 02:42:26;;;;;;;1.67;1.40;;;;;;;15.50;40.67;93964.16;5025441;28;20052;-84
2021/12/13 02:44:57;;;;;;;1.27;1.13;;;;;;;15.49;40.57;93981.75;4992861;28;20045;-83
2021/12/13 02:47:31;;;;;;;;;;;;;;;15.52;40.46;93975.34;4973836;28;20464;-83
2021/12/13 02:49:56;;;;;;;1.75;1.30;;;;;;;15.49;40.67;93970.84;5022417;28;20001;-83
2021/12/13 02:52:22;;;;;;;1.63;0.98;;;;;;;15.47;40.30;93974.03;4972562;28;20046;-83
2021/12/13 02:54:53;;;;;;;1.30;1.10;;;;;;;15.51;40.32;93965.66;4989522;28;20046;-83
2021/12/13 02:57:25;;;;;;;1.40;1.17;;;;;;;15.47;40.67;93965.88;4988612;28;20053;-83
2021/12/13 02:59:55;;;;;;;1.30;1.00;;;;;;;15.47;40.45;93973.28;4989235;28;20133;-83
2021/12/13 03:02:30;;;;;;;1.15;1.05;;;;;;;15.48;40.52;93969.34;4986904;28;20030;-84
2021/12/13 03:04:56;;;;;;;1.33;1.13;;;;;;;15.51;40.59;93982.00;4973156;28;20393;-82
2021/12/13 03:07:27;;;;;;;1.65;1.15;;;;;;;15.52;40.56;93978.06;4956445;28;20539;-83
2021/12/13 03:09:53;;;;;;;1.20;1.00;;;;;;;15.54;40.57;93991.97;4988928;28;20035;-83
2021/12/13 03:12:20;;;;;;;0.80;0.80;;;;;;;15.50;40.33;93981.25;4973029;28;20130;-83
2021/12/13 03:14:49;;;;;;;1.60;1.38;;;;;;;15.49;40.36;93984.47;4972585;28;20034;-83
2021/12/13 03:17:23;;;;;;;1.20;1.00;;;;;;;15.54;40.30;93979.09;5007939;28;20038;-89
2021/12/13 03:20:07;;;;;;;1.73;1.10;;;;;;;15.51;40.38;93977.31;5008066;28;20104;-82
2021/12/13 03:23:04;;;;;;;1.17;1.00;;;;;;;15.52;40.59;93965.19;5030613;28;20046;-84
2021/12/13 03:26:07;;;;;;;1.23;0.90;;;;;;;15.48;40.48;93972.06;4988465;28;20112;-88
2021/12/13 03:28:57;;;;;;;1.10;0.95;;;;;;;15.45;40.48;93973.75;4988673;28;20050;-84
2021/12/13 03:31:26;;;;;;;1.55;1.13;;;;;;;15.48;40.58;93972.81;4988057;28;20097;-89
2021/12/13 03:33:51;;;;;;;1.20;0.90;;;;;;;15.49;40.48;93993.38;4988271;28;20347;-83
2021/12/13 03:36:22;;;;;;;1.17;1.08;;;;;;;15.47;40.51;93993.13;4989525;28;20042;-83
2021/12/13 03:38:50;;;;;;;1.50;1.20;;;;;;;15.52;40.54;94002.59;4988511;28;20031;-84
2021/12/13 03:41:18;;;;;;;1.27;0.98;;;;;;;15.52;40.59;93997.13;5014901;28;20092;-85
2021/12/13 03:43:49;;;;;;;0.93;0.80;;;;;;;15.47;40.43;94001.28;5008542;28;20045;-83
2021/12/13 03:46:15;;;;;;;1.23;1.08;;;;;;;15.50;40.52;94000.34;5003354;28;20038;-84
2021/12/13 03:48:42;;;;;;;1.30;1.00;;;;;;;15.53;40.56;93993.19;5004903;28;20038;-82
2021/12/13 03:51:09;;;;;;;1.25;0.98;;;;;;;15.46;40.48;93997.06;4987599;28;20041;-83
2021/12/13 03:53:35;;;;;;;1.00;0.85;;;;;;;15.48;40.44;94002.78;4987836;28;20042;-83
2021/12/13 03:56:07;;;;;;;1.08;0.98;;;;;;;15.47;40.57;94005.97;4988135;28;20557;-83
2021/12/13 03:58:36;;;;;;;1.25;1.00;;;;;;;15.50;40.52;93994.88;4999691;28;20073;-85
2021/12/13 04:01:10;;;;;;;0.80;0.80;;;;;;;15.50;40.55;93991.41;4987877;28;20034;-83
2021/12/13 04:03:36;;;;;;;1.55;1.10;;;;;;;15.50;40.26;94002.31;4991906;28;20068;-83
2021/12/13 04:06:02;;;;;;;1.23;0.98;;;;;;;15.47;40.70;93998.56;5006979;28;20046;-84
2021/12/13 04:08:27;;;;;;;1.10;0.90;;;;;;;15.47;40.68;93998.56;4991092;28;20038;-83
2021/12/13 04:10:57;;;;;;;3.17;1.05;;;;;;;15.48;40.29;93996.59;4981212;28;20042;-86
2021/12/13 04:13:25;;;;;;;0.90;0.80;;;;;;;15.52;40.53;93994.41;4976326;28;20120;-83
2021/12/13 04:21:12;;;;;;;1.05;0.90;;;;;;;15.50;40.53;94007.75;5006995;28;20053;-83
2021/12/13 04:23:37;;;;;;;2.35;1.20;;;;;;;15.48;40.36;94013.69;4991814;28;20292;-84
2021/12/13 04:26:04;;;;;;;1.50;1.10;;;;;;;15.52;40.48;94016.97;4971107;28;20105;-88
2021/12/13 04:28:41;;;;;;;1.10;1.00;;;;;;;15.50;40.61;94010.47;4955401;28;20050;-84
2021/12/13 04:31:11;;;;;;;1.00;0.90;;;;;;;15.54;40.41;94019.22;4972029;28;20456;-83
2021/12/13 04:33:49;;;;;;;1.10;1.00;;;;;;;15.48;40.74;94021.84;4972376;28;20038;-83
2021/12/13 04:36:17;;;;;;;2.00;0.80;;;;;;;15.53;40.68;94025.88;4988007;28;20076;-86
2021/12/13 04:38:52;;;;;;;1.08;0.98;;;;;;;15.47;40.61;94020.34;4972079;28;20066;-85
2021/12/13 04:41:30;;;;;;;0.80;0.77;;;;;;;15.49;40.46;94026.09;4981741;28;20187;-83
2021/12/13 04:43:58;;;;;;;1.70;0.93;;;;;;;15.44;40.61;94018.59;5007027;28;20100;-83
2021/12/13 04:46:25;;;;;;;1.58;1.08;;;;;;;15.48;40.54;94010.22;5019606;28;20065;-83
2021/12/13 04:48:50;;;;;;;1.02;0.90;;;;;;;15.47;40.86;94014.91;4971347;28;20042;-84
2021/12/13 04:51:16;;;;;;;1.25;0.80;;;;;;;15.55;40.46;94020.72;4970653;28;20567;-83
2021/12/13 04:53:44;;;;;;;2.10;0.85;;;;;;;15.44;40.57;94021.31;4971774;28;20050;-89
2021/12/13 04:56:12;;;;;;;0.85;0.80;;;;;;;15.45;40.62;94022.81;5003412;28;20086;-88
2021/12/13 04:58:38;;;;;;;0.90;0.82;;;;;;;15.46;40.58;94013.41;4987060;28;20230;-83
2021/12/13 05:01:05;;;;;;;1.30;0.90;;;;;;;15.52;40.40;94025.13;4971082;28;20559;-83
2021/12/13 05:03:33;;;;;;;0.90;0.90;;;;;;;15.47;40.61;94025.81;4982060;28;20046;-84
2021/12/13 05:06:02;;;;;;;1.05;0.85;;;;;;;15.44;40.84;94029.47;4975030;28;20039;-83
2021/12/13 05:08:27;;;;;;;0.82;0.70;;;;;;;15.46;40.39;94042.63;4975477;28;20043;-83
2021/12/13 05:10:53;;;;;;;1.17;0.90;;;;;;;15.43;40.66;94036.16;4986253;28;20041;-85
2021/12/13 05:13:20;;;;;;;0.80;0.80;;;;;;;15.44;40.60;94041.13;4990136;28;20042;-87
2021/12/13 05:16:09;;;;;;;1.10;0.88;;;;;;;15.49;40.74;94044.41;5036485;28;20112;-85
2021/12/13 05:18:38;;;;;;;3.33;0.93;;;;;;;15.49;40.62;94047.88;5001762;28;20497;-84
2021/12/13 05:21:06;;;;;;;1.42;1.02;;;;;;;15.45;40.75;94041.88;4985614;28;20062;-84
2021/12/13 05:23:32;;;;;;;1.83;1.00;;;;;;;15.44;40.73;94049.31;4993680;28;20574;-85
2021/12/13 05:26:02;;;;;;;9.40;6.80;;;;;;;15.50;40.88;94051.34;4972966;28;20046;-84
2021/12/13 05:28:45;;;;;;;5.50;3.30;;;;;;;15.48;40.99;94051.06;5003677;28;20080;-84
2021/12/13 05:31:15;;;;;;;9.60;7.68;;;;;;;15.63;41.42;94047.09;4986896;28;20039;-83
2021/12/13 05:33:41;;;;;;;3.80;3.30;;;;;;;15.71;40.89;94050.91;4971941;28;20046;-88
2021/12/13 05:36:09;;;;;;;138.27;106.82;;;;;;;15.80;41.13;94049.28;4971084;28;20061;-82
2021/12/13 05:38:41;;;;;;;14.65;10.73;;;;;;;15.81;40.68;94037.88;4972612;28;20137;-83
2021/12/13 05:41:11;;;;;;;7.45;6.13;;;;;;;15.77;41.12;94046.28;4960207;28;20407;-83
2021/12/13 05:43:41;;;;;;;4.30;3.17;;;;;;;15.82;40.54;94049.53;5002946;28;20070;-84
2021/12/13 05:46:12;;;;;;;20.98;6.32;;;;;;;15.80;40.67;94055.47;4986537;28;20066;-92
2021/12/13 05:48:40;;;;;;;14.18;7.93;;;;;;;15.77;40.53;94053.72;4990007;28;20615;-87
2021/12/13 05:51:17;;;;;;;12.75;6.40;;;;;;;15.72;40.75;94043.47;4989666;28;20508;-90
2021/12/13 05:53:44;;;;;;;27.08;14.20;;;;;;;15.72;40.45;94040.75;4987147;28;20054;-86
2021/12/13 05:56:13;;;;;;;39.75;20.40;;;;;;;15.70;40.76;94049.41;4987441;28;20053;-93
2021/12/13 05:58:58;;;;;;;49.55;22.05;;;;;;;15.75;40.12;94046.00;4985844;28;20493;-85
2021/12/13 06:01:31;;;;;;;59.97;31.67;;;;;;;15.67;40.84;94058.53;4986062;28;20073;-85
2021/12/13 06:04:15;;;;;;;87.68;36.58;;;;;;;15.63;40.27;94062.69;5001976;28;20038;-85
2021/12/13 06:06:45;;;;;;;70.32;29.88;;;;;;;15.64;40.73;94067.66;4974096;28;20568;-85
2021/12/13 06:09:10;;;;;;;108.13;44.03;;;;;;;15.64;40.73;94070.38;4969749;28;20110;-86
2021/12/13 06:11:38;;;;;;;78.78;40.63;;;;;;;15.66;39.86;94070.66;4999947;28;20552;-85
2021/12/13 06:14:06;;;;;;;115.25;38.97;;;;;;;15.56;38.88;94077.50;5012757;28;20041;-87
2021/12/13 06:16:44;;;;;;;82.32;28.05;;;;;;;15.40;38.06;94075.25;5003200;28;20042;-86
2021/12/13 06:19:11;;;;;;;38.78;14.05;;;;;;;15.30;37.30;94079.31;4987430;28;20031;-88
2021/12/13 06:21:40;;;;;;;45.03;17.48;;;;;;;15.22;37.93;94078.22;4972628;28;20478;-86
2021/12/13 06:24:06;;;;;;;66.55;21.85;;;;;;;15.28;37.62;94082.53;4988518;28;20030;-90
2021/12/13 06:26:31;;;;;;;79.63;25.00;;;;;;;15.27;37.91;94072.09;4957863;28;20040;-86
2021/12/13 06:28:59;;;;;;;98.53;35.08;;;;;;;15.32;38.30;94076.88;5007155;28;20042;-88
2021/12/13 06:31:34;;;;;;;270.17;68.85;;;;;;;15.31;38.98;94070.69;5005026;28;20228;-87
2021/12/13 06:34:01;;;;;;;196.23;63.88;;;;;;;15.42;39.53;94079.00;5008167;28;20042;-84
2021/12/13 06:36:40;;;;;;;164.18;53.20;;;;;;;15.49;39.75;94082.56;4954078;28;20521;-84
2021/12/13 06:39:07;;;;;;;122.53;51.22;;;;;;;15.55;39.92;94089.59;4972842;28;20048;-88
2021/12/13 06:41:38;;;;;;;136.88;49.95;;;;;;;15.45;39.84;94088.19;5001176;28;20053;-86
2021/12/13 06:44:17;;;;;;;122.30;50.03;;;;;;;15.53;39.94;94080.38;4992886;28;20050;-90
2021/12/13 06:47:06;;;;;;;106.45;44.95;;;;;;;15.46;40.21;94084.25;4991826;28;20192;-86
2021/12/13 06:49:37;;;;;;;120.32;49.05;;;;;;;15.44;40.03;94090.16;4989655;28;20038;-85
2021/12/13 06:52:11;;;;;;;133.88;55.63;;;;;;;15.53;39.98;94094.75;4971212;28;20039;-85
2021/12/13 06:54:48;;;;;;;130.85;49.03;;;;;;;15.50;40.37;94106.59;5021768;28;20085;-88
2021/12/13 06:57:38;;;;;;;73.00;31.98;;;;;;;15.46;38.93;94102.56;5001698;28;20046;-88
2021/12/13 07:00:14;;;;;;;100.68;26.63;;;;;;;15.29;38.79;94107.78;4988515;28;20042;-87
2021/12/13 07:02:46;;;;;;;41.88;17.00;;;;;;;15.18;38.13;94115.78;4972734;28;20046;-86
2021/12/13 07:05:21;;;;;;;52.13;15.00;;;;;;;15.13;38.23;94119.19;5003647;28;20074;-87
2021/12/13 07:07:55;;;;;;;34.42;13.38;;;;;;;15.07;37.87;94121.81;5006555;28;20050;-88
2021/12/13 07:10:26;;;;;;;41.30;12.23;;;;;;;15.00;37.97;94125.66;5013605;28;20038;-88
2021/12/13 07:12:53;;;;;;;28.60;12.27;;;;;;;14.92;37.90;94123.81;4968762;28;20102;-87
2021/12/13 07:15:27;;;;;;;42.55;15.05;;;;;;;14.94;38.26;94129.53;4978794;28;20066;-88
2021/12/13 07:18:06;;;;;;;443.15;313.92;;;;;;;15.00;38.98;94130.34;5003482;28;20047;-86
2021/12/13 07:20:37;;;;;;;65.38;24.50;;;;;;;15.05;38.81;94127.72;4978650;28;20409;-88
2021/12/13 07:23:02;;;;;;;56.50;22.30;;;;;;;15.16;38.58;94137.28;4971751;28;20034;-84
2021/12/13 07:25:28;;;;;;;73.28;31.13;;;;;;;15.20;38.84;94119.53;4988620;28;20304;-88
2021/12/13 07:27:53;;;;;;;70.40;35.15;;;;;;;15.35;39.27;94139.34;4988877;28;20413;-84
2021/12/13 07:30:22;;;;;;;82.72;36.80;;;;;;;15.44;39.36;94133.00;4985420;28;20578;-86
2021/12/13 07:32:54;;;;;;;87.75;38.60;;;;;;;15.47;39.27;94134.03;5005612;28;20480;-86
2021/12/13 07:35:30;;;;;;;79.40;36.95;;;;;;;15.43;39.24;94142.41;4971747;28;20047;-88
2021/12/13 07:38:03;;;;;;;80.53;43.05;;;;;;;15.37;39.21;94142.31;4972728;28;20117;-89
2021/12/13 07:40:45;;;;;;;92.57;46.72;;;;;;;15.34;39.35;94145.25;4971080;28;20050;-83
2021/12/13 07:43:26;;;;;;;165.00;50.28;;;;;;;15.46;39.30;94140.72;4988215;28;20041;-86
2021/12/13 07:45:52;;;;;;;;;;;;;;;15.35;39.32;94154.94;4989085;28;20064;-85
2021/12/13 07:48:20;;;;;;;100.13;38.33;;;;;;;15.37;39.25;94145.03;5019488;28;20377;-88
2021/12/13 07:50:59;;;;;;;90.18;36.42;;;;;;;15.40;39.33;94146.81;4955011;28;20084;-86
2021/12/13 07:53:26;;;;;;;95.95;40.55;;;;;;;15.40;39.74;94151.53;4972081;28;20050;-88
2021/12/13 07:55:51;;;;;;;105.00;41.15;;;;;;;15.41;39.45;94156.50;5003119;28;20038;-85
2021/12/13 07:58:35;;;;;;;89.43;37.97;;;;;;;15.48;39.80;94158.09;5003844;28;20046;-88
2021/12/13 08:01:16;;;;;;;86.30;36.92;;;;;;;15.46;39.57;94155.09;4980648;28;20117;-88
2021/12/13 08:03:59;;;;;;;83.53;38.15;;;;;;;15.47;39.58;94162.03;4999018;28;20154;-87
2021/12/13 08:06:27;;;;;;;103.78;43.25;;;;;;;15.48;39.41;94170.97;5018599;28;20049;-87
2021/12/13 08:08:58;;;;;;;107.80;46.15;;;;;;;15.58;39.63;94166.94;4985812;28;20129;-89
2021/12/13 08:11:37;;;;;;;119.45;59.58;;;;;;;15.47;39.62;94175.66;4997098;28;20104;-87
2021/12/13 08:14:03;;;;;;;92.88;49.45;;;;;;;15.56;39.62;94172.88;4988143;28;20046;-87
2021/12/13 08:16:31;;;;;;;114.93;58.40;;;;;;;15.54;39.54;94183.47;4972490;28;20046;-86
2021/12/13 08:19:06;;;;;;;112.97;62.00;;;;;;;15.49;39.53;94189.56;4951522;28;20488;-91
2021/12/13 08:21:36;;;;;;;114.35;60.70;;;;;;;15.47;39.78;94188.53;5004217;28;20057;-90
2021/12/13 08:24:02;;;;;;;132.20;65.50;;;;;;;15.50;39.75;94190.31;5007478;28;20042;-91
2021/12/13 08:26:29;;;;;;;106.50;55.95;;;;;;;15.63;39.81;94194.25;4972291;28;20559;-87
2021/12/13 08:28:55;;;;;;;117.80;61.33;;;;;;;15.57;39.54;94189.97;4970765;28;20049;-89
2021/12/13 08:31:29;;;;;;;109.35;60.15;;;;;;;15.56;39.72;94189.22;4954623;28;20057;-85
2021/12/13 08:34:00;;;;;;;105.15;52.70;;;;;;;15.58;39.75;94197.66;4988759;28;20027;-87
2021/12/13 08:36:39;;;;;;;;;;;;;;;15.55;39.00;94187.69;4986669;28;20050;-85
2021/12/13 08:39:06;;;;;;;78.95;41.60;;;;;;;15.54;38.83;94191.63;5019928;28;19975;-87
2021/12/13 08:41:39;;;;;;;103.20;52.95;;;;;;;15.50;39.03;94193.03;5007989;28;20038;-88
2021/12/13 08:44:09;;;;;;;106.35;58.22;;;;;;;15.52;39.40;94193.31;5019043;28;20034;-88
2021/12/13 08:46:55;;;;;;;123.67;64.23;;;;;;;15.57;39.66;94198.91;5001109;28;20053;-85
2021/12/13 08:49:29;;;;;;;145.45;75.75;;;;;;;15.53;39.86;94195.56;5002730;28;20069;-89
2021/12/13 08:52:14;;;;;;;135.60;69.95;;;;;;;15.59;40.03;94198.41;4988453;28;20038;-90
2021/12/13 08:54:54;;;;;;;269.15;99.03;;;;;;;15.53;39.98;94190.13;4991612;28;20042;-87
2021/12/13 08:57:49;;;;;;;193.35;91.88;;;;;;;15.55;40.03;94195.84;4988881;28;20165;-90
2021/12/13 09:00:20;;;;;;;167.90;81.68;;;;;;;15.53;40.47;94206.47;4957554;28;20129;-91
2021/12/13 09:02:56;;;;;;;180.23;88.43;;;;;;;15.56;39.90;94200.13;4997597;28;20050;-90
2021/12/13 09:05:34;;;;;;;181.68;88.22;;;;;;;15.57;40.09;94217.97;5004635;28;20034;-92
2021/12/13 09:08:08;;;;;;;177.18;87.40;;;;;;;15.60;40.01;94208.06;4987453;28;20507;-88
2021/12/13 09:11:00;;;;;;;106.30;51.75;;;;;;;15.46;38.94;94212.31;4955184;28;20050;-88
2021/12/13 09:13:40;;;;;;;140.85;59.90;;;;;;;15.41;39.37;94204.78;4963083;28;20054;-89
2021/12/13 09:16:06;;;;;;;152.43;67.63;;;;;;;15.41;39.32;94208.25;4973798;28;20038;-91
2021/12/13 09:18:32;;;;;;;195.68;80.32;;;;;;;15.41;39.53;94210.25;4970740;28;20326;-90
2021/12/13 09:20:58;;;;;;;183.35;74.97;;;;;;;15.48;39.93;94214.56;4955167;28;20043;-88
2021/12/13 09:23:26;;;;;;;155.95;78.07;;;;;;;15.50;39.84;94201.22;5006129;28;20766;-90
2021/12/13 09:26:04;;;;;;;194.30;89.05;;;;;;;15.51;40.11;94208.91;4977945;28;20042;-92
2021/12/13 09:28:35;;;;;;;157.40;76.35;;;;;;;15.60;40.10;94217.00;4956426;28;20108;-90
2021/12/13 09:31:04;;;;;;;196.27;86.97;;;;;;;15.55;40.33;94206.75;4957033;28;20054;-90
2021/12/13 09:33:46;;;;;;;162.13;82.32;;;;;;;15.57;40.05;94209.03;4984411;28;20047;-90
2021/12/13 09:36:30;;;;;;;188.07;96.82;;;;;;;15.61;40.42;94215.03;4992661;28;20041;-89
2021/12/13 09:39:12;;;;;;;160.55;69.00;;;;;;;15.55;39.97;94214.19;5013423;28;20034;-91
2021/12/13 09:41:53;;;;;;;165.57;76.40;;;;;;;15.52;39.72;94206.94;4963993;28;20050;-90
2021/12/13 09:44:31;;;;;;;178.18;83.30;;;;;;;15.50;40.34;94201.22;4996187;28;20041;-91
2021/12/13 09:47:05;;;;;;;209.80;90.13;;;;;;;15.49;40.81;94192.28;4990193;28;20393;-91
2021/12/13 09:49:45;;;;;;;195.65;80.75;;;;;;;15.62;41.03;94206.38;4987458;28;20038;-90
2021/12/13 09:52:16;;;;;;;234.45;95.10;;;;;;;15.55;41.25;94206.75;4979185;28;20038;-90
2021/12/13 09:54:44;;;;;;;187.63;91.57;;;;;;;15.59;41.17;94207.31;4986425;28;20110;-91
2021/12/13 09:57:14;;;;;;;216.88;97.35;;;;;;;15.55;41.55;94203.28;4997082;28;20046;-91
2021/12/13 09:59:44;;;;;;;213.17;103.77;;;;;;;15.59;41.50;94199.16;4967598;28;20042;-87
2021/12/13 10:02:21;;;;;;;212.40;103.15;;;;;;;15.61;41.97;94193.22;5007837;28;20117;-91
2021/12/13 10:04:46;;;;;;;155.75;70.10;;;;;;;15.60;40.57;94191.72;4977845;28;20034;-89
2021/12/13 10:07:13;;;;;;;142.77;66.05;;;;;;;15.48;40.78;94195.47;5015037;28;20061;-90
2021/12/13 10:09:51;;;;;;;143.10;66.50;;;;;;;15.51;41.08;94197.28;5011238;28;20045;-90
2021/12/13 10:12:28;;;;;;;187.10;80.35;;;;;;;15.54;40.98;94199.81;5011975;28;20062;-92
2021/12/13 10:15:00;;;;;;;210.98;89.28;;;;;;;15.58;41.50;94205.09;5015883;28;20046;-91
2021/12/13 10:17:36;;;;;;;192.45;86.70;;;;;;;15.60;41.52;94192.47;5018906;28;20138;-93
2021/12/13 10:20:07;;;;;;;206.38;87.45;;;;;;;15.69;41.12;94189.66;5012306;28;20042;-89
2021/12/13 10:22:33;;;;;;;222.93;100.85;;;;;;;15.65;40.91;94193.78;4961037;28;20084;-92
2021/12/13 10:25:15;;;;;;;219.90;97.90;;;;;;;15.61;41.22;94204.13;4974379;28;20062;-87
2021/12/13 10:27:41;;;;;;;224.60;96.25;;;;;;;15.58;41.47;94203.13;4992345;28;20062;-90
2021/12/13 10:30:10;;;;;;;213.65;99.40;;;;;;;15.70;41.51;94187.66;4964779;28;20133;-89
2021/12/13 10:32:37;;;;;;;211.85;97.00;;;;;;;15.63;41.60;94201.69;4964543;28;20096;-91
2021/12/13 10:35:20;;;;;;;218.73;100.32;;;;;;;15.63;41.46;94198.94;4967922;28;20049;-89
2021/12/13 10:37:50;;;;;;;237.63;103.85;;;;;;;15.64;41.48;94193.03;5009341;23;20042;-90
2021/12/13 10:40:49;;;;;;;221.73;100.82;;;;;;;15.65;41.42;94207.41;4998647;28;20041;-94
2021/12/13 10:43:41;;;;;;;222.35;102.55;;;;;;;15.66;41.42;94201.50;4976591;28;20717;-93
2021/12/13 10:46:25;;;;;;;223.55;104.28;;;;;;;15.67;41.69;94191.34;4982636;28;20034;-93
2021/12/13 10:48:57;;;;;;;218.98;102.47;;;;;;;15.69;41.84;94195.09;4985878;28;20089;-90
2021/12/13 10:51:29;;;;;;;229.00;102.35;;;;;;;15.67;41.73;94185.88;4961561;28;20044;-91
2021/12/13 10:53:56;;;;;;;233.13;103.60;;;;;;;15.71;41.54;94181.75;4990617;28;20042;-90
2021/12/13 10:58:48;;;;;;;208.88;85.15;;;;;;;15.69;41.68;94183.44;5011851;23;20405;-90
2021/12/13 11:01:19;;;;;;;235.65;112.97;;;;;;;15.73;41.48;94179.28;5024538;28;20042;-91
2021/12/13 11:03:44;;;;;;;216.60;101.85;;;;;;;15.73;41.69;94176.56;5024861;28;20049;-88
2021/12/13 11:06:10;;;;;;;257.05;117.80;;;;;;;15.84;42.47;94181.41;4989678;28;20030;-89
2021/12/13 11:08:42;;;;;;;217.50;104.45;;;;;;;15.91;41.87;94183.00;5022327;28;20038;-91
2021/12/13 11:11:20;;;;;;;253.02;118.07;;;;;;;15.92;43.00;94185.25;5005070;28;20517;-89
2021/12/13 11:13:46;;;;;;;238.35;107.80;;;;;;;16.00;42.72;94178.19;4988744;28;20129;-90
2021/12/13 11:16:16;;;;;;;242.80;111.93;;;;;;;16.03;42.35;94179.19;5005636;28;20037;-90
2021/12/13 11:18:44;;;;;;;237.35;106.03;;;;;;;16.07;42.48;94185.19;4991069;28;20038;-89
2021/12/13 11:21:14;;;;;;;210.90;102.80;;;;;;;16.05;42.24;94180.22;5008510;28;20050;-94
2021/12/13 11:23:39;;;;;;;212.68;105.97;;;;;;;16.11;42.09;94178.31;4988563;28;20521;-85
2021/12/13 11:26:07;;;;;;;200.93;99.75;;;;;;;16.14;41.69;94173.13;4971757;28;20076;-87
2021/12/13 11:28:33;;;;;;;190.70;88.65;;;;;;;16.05;41.46;94174.75;4973872;28;20077;-86
2021/12/13 11:31:00;;;;;;;191.60;89.65;;;;;;;15.97;41.92;94178.38;5005848;28;20069;-86
2021/12/13 11:33:38;;;;;;;173.98;84.30;;;;;;;15.95;41.65;94181.56;4994216;28;20454;-89
2021/12/13 11:36:06;;;;;;;172.55;85.15;;;;;;;15.92;41.82;94174.34;4990519;28;20047;-89
2021/12/13 11:38:56;;;;;;;165.57;83.68;;;;;;;15.93;41.64;94170.38;4988108;28;20111;-91
2021/12/13 11:41:47;;;;;;;163.65;92.47;;;;;;;15.84;41.04;94167.03;5010642;28;21345;-91
2021/12/13 11:44:48;;;;;;;141.63;72.25;;;;;;;15.87;41.22;94174.25;5010038;28;20065;-90
2021/12/13 11:47:33;;;;;;;132.07;65.18;;;;;;;15.89;41.40;94167.09;5002134;28;20049;-90
2021/12/13 11:50:27;;;;;;;140.98;75.40;;;;;;;15.85;41.26;94173.97;5011091;28;20050;-93
2021/12/13 11:53:22;;;;;;;126.45;65.20;;;;;;;15.89;41.55;94182.72;4992862;28;20474;-91
2021/12/13 11:56:21;;;;;;;151.90;68.90;;;;;;;15.82;41.47;94172.19;4993628;28;20070;-90